Time;durP1;ratioP1;P1;durP2;ratioP2;P2;SDS_P1;SDS_P2;PMS_P1;PMS_P2;Temp;Humidity;BMP_temperature;BMP_pressure;BME280_temperature;BME280_humidity;BME280_pressure;Samples;Min_cycle;Max_cycle;Signal;HPM_P1;HPM_P2
2023/04/18 00:01:51;;;;;;;7.17;6.47;;;;;;;;;;5013635;28;20230;-83
2023/04/18 00:04:21;;;;;;;7.13;6.43;;;;;;;;;;4997441;28;20229;-81
2023/04/18 00:06:48;;;;;;;6.73;6.13;;;;;;;;;;4993875;28;20678;-83
2023/04/18 00:09:17;;;;;;;7.87;7.07;;;;;;;;;;4983873;28;20236;-81
2023/04/18 00:11:45;;;;;;;9.07;7.10;;;;;;;;;;5009826;28;20223;-81
2023/04/18 00:14:10;;;;;;;7.80;7.00;;;;;;;;;;5000097;28;20910;-83
2023/04/18 00:16:38;;;;;;;7.93;6.70;;;;;;;;;;4998020;28;20227;-81
2023/04/18 00:19:04;;;;;;;7.73;6.93;;;;;;;;;;4998899;28;20659;-80
2023/04/18 00:21:30;;;;;;;8.03;7.20;;;;;;;;;;5011140;28;20232;-78
2023/04/18 00:23:56;;;;;;;8.07;7.00;;;;;;;;;;5014333;28;20219;-79
2023/04/18 00:26:22;;;;;;;8.27;7.47;;;;;;;;;;4997430;28;20234;-80
2023/04/18 00:28:49;;;;;;;10.13;7.57;;;;;;;;;;4997191;28;20314;-80
2023/04/18 00:31:16;;;;;;;8.47;7.57;;;;;;;;;;4993059;28;20255;-82
2023/04/18 00:33:41;;;;;;;7.73;6.90;;;;;;;;;;5004903;28;20759;-80
2023/04/18 00:36:07;;;;;;;8.10;6.80;;;;;;;;;;5005762;28;20277;-81
2023/04/18 00:38:33;;;;;;;7.70;6.90;;;;;;;;;;5005445;28;20597;-80
2023/04/18 00:41:01;;;;;;;8.77;7.13;;;;;;;;;;5001055;28;20228;-80
2023/04/18 00:43:27;;;;;;;7.50;6.80;;;;;;;;;;4974222;28;20299;-81
2023/04/18 00:45:52;;;;;;;7.73;6.93;;;;;;;;;;4988643;28;20699;-79
2023/04/18 00:48:18;;;;;;;8.53;7.37;;;;;;;;;;5007055;28;20696;-78
2023/04/18 00:50:49;;;;;;;8.27;7.40;;;;;;;;;;4974047;28;20652;-79
2023/04/18 00:53:15;;;;;;;8.43;7.57;;;;;;;;;;5020402;28;20224;-79
2023/04/18 00:55:40;;;;;;;8.27;7.47;;;;;;;;;;5004986;28;20613;-79
2023/04/18 00:58:08;;;;;;;9.77;7.43;;;;;;;;;;4988610;28;20228;-79
2023/04/18 01:00:33;;;;;;;7.80;7.00;;;;;;;;;;5023068;28;20235;-80
2023/04/18 01:02:59;;;;;;;9.10;7.10;;;;;;;;;;5005911;28;20219;-79
2023/04/18 01:05:27;;;;;;;7.67;6.93;;;;;;;;;;5003988;28;20231;-79
2023/04/18 01:07:57;;;;;;;7.93;7.13;;;;;;;;;;5023482;28;20243;-78
2023/04/18 01:10:23;;;;;;;11.57;7.50;;;;;;;;;;5011032;28;20236;-81
2023/04/18 01:12:48;;;;;;;8.90;8.00;;;;;;;;;;4992753;28;20220;-80
2023/04/18 01:15:14;;;;;;;8.47;7.57;;;;;;;;;;4997271;28;20223;-79
2023/04/18 01:17:40;;;;;;;8.57;7.67;;;;;;;;;;5031310;28;20215;-80
2023/04/18 01:20:07;;;;;;;8.47;7.67;;;;;;;;;;4995029;28;20238;-79
2023/04/18 01:22:32;;;;;;;9.83;8.17;;;;;;;;;;5000007;28;20223;-80
2023/04/18 01:24:58;;;;;;;8.60;7.80;;;;;;;;;;5007139;28;20638;-81
2023/04/18 01:27:25;;;;;;;10.37;8.17;;;;;;;;;;5005515;28;20219;-79
2023/04/18 01:29:51;;;;;;;9.17;8.27;;;;;;;;;;4971971;28;20650;-80
2023/04/18 01:32:20;;;;;;;9.07;8.07;;;;;;;;;;4979426;28;20216;-79
2023/04/18 01:34:45;;;;;;;9.37;8.50;;;;;;;;;;4989443;28;20215;-79
2023/04/18 01:37:11;;;;;;;8.80;8.00;;;;;;;;;;4988136;28;20215;-79
2023/04/18 01:39:39;;;;;;;10.40;9.03;;;;;;;;;;5005942;28;20291;-79
2023/04/18 01:42:04;;;;;;;9.40;8.50;;;;;;;;;;5005350;28;20227;-80
2023/04/18 01:44:30;;;;;;;10.33;9.23;;;;;;;;;;5005086;28;20220;-79
2023/04/18 01:46:58;;;;;;;10.30;9.30;;;;;;;;;;4969797;28;20218;-80
2023/04/18 01:49:23;;;;;;;11.07;9.87;;;;;;;;;;5003780;28;20646;-80
2023/04/18 01:51:49;;;;;;;11.33;10.30;;;;;;;;;;5002414;28;20227;-80
2023/04/18 01:54:14;;;;;;;11.50;10.37;;;;;;;;;;5003719;28;20293;-79
2023/04/18 01:56:40;;;;;;;10.73;9.73;;;;;;;;;;4988521;28;20225;-79
2023/04/18 01:59:05;;;;;;;11.87;10.67;;;;;;;;;;5002956;28;20231;-80
2023/04/18 02:01:31;;;;;;;11.97;10.60;;;;;;;;;;5008085;28;20237;-79
2023/04/18 02:03:57;;;;;;;12.77;11.17;;;;;;;;;;5005489;28;20226;-79
2023/04/18 02:06:23;;;;;;;12.77;11.00;;;;;;;;;;4988763;28;20224;-79
2023/04/18 02:08:48;;;;;;;12.70;11.37;;;;;;;;;;5000389;28;20223;-79
2023/04/18 02:11:14;;;;;;;12.23;11.03;;;;;;;;;;5008222;28;20237;-77
2023/04/18 02:13:44;;;;;;;12.63;11.37;;;;;;;;;;5024218;28;20273;-79
2023/04/18 02:16:11;;;;;;;13.20;11.33;;;;;;;;;;5031265;28;20309;-80
2023/04/18 02:18:38;;;;;;;12.97;11.67;;;;;;;;;;4999178;28;20209;-79
2023/04/18 02:21:05;;;;;;;13.07;11.87;;;;;;;;;;5004098;28;20262;-79
2023/04/18 02:23:33;;;;;;;12.93;11.63;;;;;;;;;;5001347;28;20651;-79
2023/04/18 02:26:01;;;;;;;13.20;11.90;;;;;;;;;;5005098;28;20339;-79
2023/04/18 02:28:26;;;;;;;13.57;12.03;;;;;;;;;;4996893;28;20240;-80
2023/04/18 02:30:53;;;;;;;13.50;12.10;;;;;;;;;;5004942;28;20228;-80
2023/04/18 02:33:18;;;;;;;13.20;11.90;;;;;;;;;;5008496;28;20223;-81
2023/04/18 02:35:44;;;;;;;13.23;11.77;;;;;;;;;;5047502;28;20219;-81
2023/04/18 02:38:14;;;;;;;13.80;12.40;;;;;;;;;;5005452;28;20233;-80
2023/04/18 02:40:39;;;;;;;13.10;11.77;;;;;;;;;;4989822;28;20224;-80
2023/04/18 02:43:05;;;;;;;13.27;11.97;;;;;;;;;;5027110;28;20506;-79
2023/04/18 02:45:31;;;;;;;13.13;11.73;;;;;;;;;;4998799;28;20212;-81
2023/04/18 02:48:01;;;;;;;13.20;11.73;;;;;;;;;;5007668;28;20220;-81
2023/04/18 02:50:28;;;;;;;14.00;12.70;;;;;;;;;;5021989;28;20225;-80
2023/04/18 02:52:55;;;;;;;14.30;12.23;;;;;;;;;;5004216;28;20204;-80
2023/04/18 02:55:26;;;;;;;13.43;12.17;;;;;;;;;;5022886;28;20868;-78
2023/04/18 02:57:55;;;;;;;14.50;12.23;;;;;;;;;;5037425;28;20208;-81
2023/04/18 03:00:55;;;;;;;14.63;12.07;;;;;;;;;;5009529;28;20217;-81
2023/04/18 03:03:49;;;;;;;13.57;12.07;;;;;;;;;;5037763;28;20231;-80
2023/04/18 03:06:30;;;;;;;13.97;11.40;;;;;;;;;;5006346;28;20236;-81
2023/04/18 03:08:58;;;;;;;13.33;11.47;;;;;;;;;;4998067;28;20220;-81
2023/04/18 03:11:29;;;;;;;14.87;12.23;;;;;;;;;;4985398;28;20950;-82
2023/04/18 03:13:55;;;;;;;16.93;12.57;;;;;;;;;;4993520;28;20941;-81
2023/04/18 03:16:23;;;;;;;13.37;11.93;;;;;;;;;;4996897;28;20239;-80
2023/04/18 03:18:49;;;;;;;13.37;11.97;;;;;;;;;;4986848;28;20224;-81
2023/04/18 03:21:17;;;;;;;13.20;11.87;;;;;;;;;;5001309;28;20220;-82
2023/04/18 03:23:45;;;;;;;14.43;12.80;;;;;;;;;;5005015;28;20208;-80
2023/04/18 03:26:12;;;;;;;13.27;11.87;;;;;;;;;;4983434;28;20224;-82
2023/04/18 03:28:39;;;;;;;13.57;12.17;;;;;;;;;;5017059;28;20720;-78
2023/04/18 03:31:08;;;;;;;13.50;12.10;;;;;;;;;;5002100;28;21571;-80
2023/04/18 03:33:41;;;;;;;13.87;12.47;;;;;;;;;;4988140;28;20247;-79
2023/04/18 03:36:09;;;;;;;13.23;11.23;;;;;;;;;;4993202;28;20216;-79
2023/04/18 03:38:37;;;;;;;15.17;12.53;;;;;;;;;;4992560;28;20780;-79
2023/04/18 03:41:04;;;;;;;14.00;12.23;;;;;;;;;;5003709;28;20228;-79
2023/04/18 03:43:35;;;;;;;13.70;12.07;;;;;;;;;;5008172;28;20239;-79
2023/04/18 03:46:01;;;;;;;14.37;12.87;;;;;;;;;;4973972;28;20224;-79
2023/04/18 03:48:34;;;;;;;14.27;12.77;;;;;;;;;;4991938;28;20213;-80
2023/04/18 03:51:01;;;;;;;13.93;12.40;;;;;;;;;;5007897;28;20296;-79
2023/04/18 03:53:27;;;;;;;12.70;11.40;;;;;;;;;;5007269;28;20709;-79
2023/04/18 03:55:57;;;;;;;15.83;12.57;;;;;;;;;;4995033;28;20216;-79
2023/04/18 03:58:36;;;;;;;15.57;13.50;;;;;;;;;;5026624;28;20270;-80
2023/04/18 04:01:02;;;;;;;14.17;12.70;;;;;;;;;;5024016;28;20220;-80
2023/04/18 04:03:28;;;;;;;14.40;12.97;;;;;;;;;;4978413;28;20216;-79
2023/04/18 04:05:54;;;;;;;13.70;12.23;;;;;;;;;;5006401;28;20232;-79
2023/04/18 04:08:21;;;;;;;14.37;12.93;;;;;;;;;;4992953;28;20222;-79
2023/04/18 04:10:46;;;;;;;13.90;12.47;;;;;;;;;;4979060;28;20226;-80
2023/04/18 04:13:16;;;;;;;13.87;12.43;;;;;;;;;;5008609;28;20219;-79
2023/04/18 04:15:42;;;;;;;16.03;13.03;;;;;;;;;;4976508;28;20223;-80
2023/04/18 04:18:09;;;;;;;14.83;13.40;;;;;;;;;;4992409;28;20585;-79
2023/04/18 04:20:37;;;;;;;13.87;12.43;;;;;;;;;;4984219;28;20227;-80
2023/04/18 04:23:12;;;;;;;14.70;12.87;;;;;;;;;;4996998;28;20219;-79
2023/04/18 04:25:41;;;;;;;14.40;12.90;;;;;;;;;;4999764;28;20244;-79
2023/04/18 04:28:16;;;;;;;14.97;13.27;;;;;;;;;;4985702;28;20224;-78
2023/04/18 04:30:54;;;;;;;14.93;13.43;;;;;;;;;;5005720;28;20223;-79
2023/04/18 04:33:24;;;;;;;14.50;13.00;;;;;;;;;;4995979;28;20310;-80
2023/04/18 04:35:51;;;;;;;13.80;12.40;;;;;;;;;;4993576;28;20270;-79
2023/04/18 04:38:21;;;;;;;15.17;12.87;;;;;;;;;;4994396;28;20219;-79
2023/04/18 04:40:48;;;;;;;14.17;12.77;;;;;;;;;;5009339;28;20238;-79
2023/04/18 04:43:14;;;;;;;15.03;13.23;;;;;;;;;;4992638;28;20255;-79
2023/04/18 04:45:44;;;;;;;13.87;12.47;;;;;;;;;;4973093;28;20224;-79
2023/04/18 04:48:12;;;;;;;14.37;12.97;;;;;;;;;;4990407;28;20227;-80
2023/04/18 04:50:39;;;;;;;14.80;13.17;;;;;;;;;;4992733;28;20223;-79
2023/04/18 04:53:05;;;;;;;14.03;12.63;;;;;;;;;;5006211;28;20220;-79
2023/04/18 04:55:31;;;;;;;13.90;12.50;;;;;;;;;;5005935;28;20306;-79
2023/04/18 04:57:58;;;;;;;14.37;12.87;;;;;;;;;;4989098;28;20216;-79
2023/04/18 05:00:49;;;;;;;13.47;12.17;;;;;;;;;;4990882;28;20307;-79
2023/04/18 05:03:15;;;;;;;13.93;12.43;;;;;;;;;;5023549;28;20214;-80
2023/04/18 05:05:40;;;;;;;16.80;12.10;;;;;;;;;;5007117;28;20220;-80
2023/04/18 05:08:06;;;;;;;14.40;12.37;;;;;;;;;;4973555;28;20219;-80
2023/04/18 05:10:31;;;;;;;14.43;12.67;;;;;;;;;;5008015;28;20779;-80
2023/04/18 05:12:57;;;;;;;14.07;11.73;;;;;;;;;;4976487;28;20228;-80
2023/04/18 05:15:23;;;;;;;14.30;12.87;;;;;;;;;;4990421;28;20551;-80
2023/04/18 05:17:49;;;;;;;14.67;13.07;;;;;;;;;;5007694;28;20231;-81
2023/04/18 05:20:15;;;;;;;14.47;12.97;;;;;;;;;;4974718;28;20224;-80
2023/04/18 05:22:41;;;;;;;15.70;13.50;;;;;;;;;;5001650;28;20223;-81
2023/04/18 05:25:07;;;;;;;14.50;12.77;;;;;;;;;;4991610;28;20710;-81
2023/04/18 05:27:32;;;;;;;16.33;13.13;;;;;;;;;;5006866;28;20212;-80
2023/04/18 05:29:58;;;;;;;15.10;13.50;;;;;;;;;;4989769;28;20303;-79
2023/04/18 05:32:23;;;;;;;14.97;13.50;;;;;;;;;;4974327;28;20216;-80
2023/04/18 05:34:49;;;;;;;15.10;13.47;;;;;;;;;;4991679;28;20228;-80
2023/04/18 05:37:15;;;;;;;15.67;14.07;;;;;;;;;;4989673;28;20711;-79
2023/04/18 05:39:41;;;;;;;15.10;13.43;;;;;;;;;;4990423;28;20216;-80
2023/04/18 05:42:06;;;;;;;16.57;13.53;;;;;;;;;;5003726;28;20739;-80
2023/04/18 05:44:32;;;;;;;15.33;13.70;;;;;;;;;;4988293;28;20223;-80
2023/04/18 05:47:00;;;;;;;15.70;13.80;;;;;;;;;;4992164;28;20224;-80
2023/04/18 05:49:25;;;;;;;16.77;14.00;;;;;;;;;;5009382;28;20224;-80
2023/04/18 05:51:51;;;;;;;15.90;14.13;;;;;;;;;;5000372;28;20331;-80
2023/04/18 05:54:23;;;;;;;16.03;14.43;;;;;;;;;;4990966;28;20220;-81
2023/04/18 05:56:52;;;;;;;16.40;14.73;;;;;;;;;;5023909;28;20224;-80
2023/04/18 05:59:17;;;;;;;16.90;14.90;;;;;;;;;;4994011;28;20224;-81
2023/04/18 06:01:43;;;;;;;17.13;14.97;;;;;;;;;;4980920;28;20236;-81
2023/04/18 06:04:08;;;;;;;17.63;14.97;;;;;;;;;;5007216;28;20235;-81
2023/04/18 06:06:34;;;;;;;18.13;14.63;;;;;;;;;;4992046;28;20227;-81
2023/04/18 06:09:00;;;;;;;16.57;14.77;;;;;;;;;;4991956;28;20252;-81
2023/04/18 06:11:25;;;;;;;16.70;14.90;;;;;;;;;;4975501;28;20704;-81
2023/04/18 06:13:54;;;;;;;15.50;13.87;;;;;;;;;;4990550;28;20711;-80
2023/04/18 06:16:23;;;;;;;16.90;14.80;;;;;;;;;;4976248;28;21184;-80
2023/04/18 06:18:48;;;;;;;17.53;13.93;;;;;;;;;;5007804;28;20239;-81
2023/04/18 06:21:14;;;;;;;16.83;15.03;;;;;;;;;;5006570;28;20229;-81
2023/04/18 06:23:39;;;;;;;16.87;14.17;;;;;;;;;;4960519;28;20589;-81
2023/04/18 06:26:08;;;;;;;16.33;14.60;;;;;;;;;;5008352;28;20790;-80
2023/04/18 06:28:36;;;;;;;17.30;15.20;;;;;;;;;;4977009;28;20216;-81
2023/04/18 06:31:04;;;;;;;17.37;14.83;;;;;;;;;;4979563;28;20227;-81
2023/04/18 06:33:30;;;;;;;15.80;14.23;;;;;;;;;;5012766;28;20224;-81
2023/04/18 06:35:55;;;;;;;19.07;14.10;;;;;;;;;;4978291;28;20224;-81
2023/04/18 06:38:21;;;;;;;14.93;13.43;;;;;;;;;;5008281;28;20219;-80
2023/04/18 06:40:49;;;;;;;16.77;13.53;;;;;;;;;;4990269;28;20228;-81
2023/04/18 06:43:14;;;;;;;14.80;13.00;;;;;;;;;;4995906;28;20570;-80
2023/04/18 06:45:40;;;;;;;14.37;12.90;;;;;;;;;;4980396;28;20220;-80
2023/04/18 06:48:07;;;;;;;14.10;12.70;;;;;;;;;;5009222;28;20940;-80
2023/04/18 06:50:33;;;;;;;15.33;13.43;;;;;;;;;;5013957;28;20262;-79
2023/04/18 06:52:58;;;;;;;16.53;12.47;;;;;;;;;;4995483;28;20220;-80
2023/04/18 06:55:24;;;;;;;13.33;11.93;;;;;;;;;;4999230;28;20815;-79
2023/04/18 06:57:49;;;;;;;13.13;11.83;;;;;;;;;;4982137;28;20220;-80
2023/04/18 07:00:18;;;;;;;13.53;12.00;;;;;;;;;;5017125;28;20228;-81
2023/04/18 07:02:43;;;;;;;11.97;10.77;;;;;;;;;;5008113;28;20235;-82
2023/04/18 07:05:09;;;;;;;13.43;10.87;;;;;;;;;;5018057;28;20224;-81
2023/04/18 07:07:35;;;;;;;11.60;10.43;;;;;;;;;;5003370;28;20234;-81
2023/04/18 07:10:00;;;;;;;11.50;9.33;;;;;;;;;;4986012;28;20220;-81
2023/04/18 07:12:26;;;;;;;11.47;10.20;;;;;;;;;;4983060;28;20224;-83
2023/04/18 07:14:52;;;;;;;11.23;10.13;;;;;;;;;;4999361;28;20621;-80
2023/04/18 07:17:25;;;;;;;12.40;10.30;;;;;;;;;;5028147;28;20215;-82
2023/04/18 07:19:50;;;;;;;11.23;10.07;;;;;;;;;;4981320;28;20792;-82
2023/04/18 07:22:20;;;;;;;10.47;9.30;;;;;;;;;;4996688;28;20231;-79
2023/04/18 07:24:48;;;;;;;9.10;8.20;;;;;;;;;;5011907;28;20223;-82
2023/04/18 07:27:14;;;;;;;11.07;8.77;;;;;;;;;;4996799;28;20251;-80
2023/04/18 07:29:39;;;;;;;10.57;8.53;;;;;;;;;;4974314;28;20232;-81
2023/04/18 07:32:12;;;;;;;10.73;8.80;;;;;;;;;;5014032;28;20232;-78
2023/04/18 07:34:39;;;;;;;8.90;7.50;;;;;;;;;;4980721;28;20307;-82
2023/04/18 07:37:06;;;;;;;8.40;7.60;;;;;;;;;;5009994;28;20227;-81
2023/04/18 07:39:37;;;;;;;8.17;7.37;;;;;;;;;;4996882;28;20238;-83
2023/04/18 07:42:03;;;;;;;7.63;6.93;;;;;;;;;;4993195;28;20237;-81
2023/04/18 07:44:28;;;;;;;7.30;6.60;;;;;;;;;;4994739;28;20449;-82
2023/04/18 07:46:54;;;;;;;7.83;6.13;;;;;;;;;;5011428;28;20216;-82
2023/04/18 07:49:19;;;;;;;5.80;5.20;;;;;;;;;;5010862;28;20236;-80
2023/04/18 07:51:45;;;;;;;6.33;5.73;;;;;;;;;;4991682;28;20224;-82
2023/04/18 07:54:10;;;;;;;6.37;5.70;;;;;;;;;;4993752;28;20250;-81
2023/04/18 07:56:38;;;;;;;6.37;5.67;;;;;;;;;;4996146;28;20216;-81
2023/04/18 07:59:03;;;;;;;6.13;5.53;;;;;;;;;;4978385;28;20210;-81
2023/04/18 08:01:29;;;;;;;6.77;6.10;;;;;;;;;;5009455;28;20236;-81
2023/04/18 08:04:00;;;;;;;9.07;7.20;;;;;;;;;;5009340;28;20224;-80
2023/04/18 08:06:27;;;;;;;8.20;5.90;;;;;;;;;;4992258;28;20295;-80
2023/04/18 08:08:52;;;;;;;7.40;6.10;;;;;;;;;;4991930;28;20204;-81
2023/04/18 08:11:20;;;;;;;8.40;6.40;;;;;;;;;;4974270;28;20220;-80
2023/04/18 08:13:45;;;;;;;8.57;6.70;;;;;;;;;;5025886;28;20250;-81
2023/04/18 08:16:11;;;;;;;7.90;6.80;;;;;;;;;;4993188;28;20215;-81
2023/04/18 08:18:39;;;;;;;8.90;6.13;;;;;;;;;;4990087;28;20216;-80
2023/04/18 08:21:05;;;;;;;8.30;6.33;;;;;;;;;;4993836;28;20278;-82
2023/04/18 08:23:32;;;;;;;6.13;5.57;;;;;;;;;;4992784;28;20224;-82
2023/04/18 08:26:00;;;;;;;7.13;5.67;;;;;;;;;;5008684;28;20656;-82
2023/04/18 08:28:26;;;;;;;5.97;5.37;;;;;;;;;;4994124;28;20319;-80
2023/04/18 08:30:53;;;;;;;5.70;5.13;;;;;;;;;;5012412;28;20296;-80
2023/04/18 08:33:20;;;;;;;5.97;5.27;;;;;;;;;;4996802;28;20220;-81
2023/04/18 08:35:46;;;;;;;6.73;5.30;;;;;;;;;;4983198;28;20947;-81
2023/04/18 08:38:12;;;;;;;6.03;5.47;;;;;;;;;;5000800;28;20273;-82
2023/04/18 08:40:37;;;;;;;6.20;5.30;;;;;;;;;;5012775;28;20244;-81
2023/04/18 08:43:06;;;;;;;5.93;5.40;;;;;;;;;;4977775;28;20274;-80
2023/04/18 08:45:37;;;;;;;6.33;5.73;;;;;;;;;;5008097;28;20216;-80
2023/04/18 08:48:03;;;;;;;5.93;5.33;;;;;;;;;;5009682;28;20688;-79
2023/04/18 08:50:31;;;;;;;6.63;5.67;;;;;;;;;;4992840;28;20216;-80
2023/04/18 08:52:58;;;;;;;8.70;6.23;;;;;;;;;;4984201;28;20910;-81
2023/04/18 08:55:24;;;;;;;6.23;5.63;;;;;;;;;;4990481;28;20226;-81
2023/04/18 08:57:52;;;;;;;6.10;5.03;;;;;;;;;;4993233;28;20232;-81
2023/04/18 09:00:21;;;;;;;4.87;4.47;;;;;;;;;;4989008;28;20224;-79
2023/04/18 09:02:48;;;;;;;5.63;4.70;;;;;;;;;;4990986;28;20231;-81
2023/04/18 09:05:20;;;;;;;4.57;4.17;;;;;;;;;;4974120;28;20758;-82
2023/04/18 09:07:46;;;;;;;5.20;4.17;;;;;;;;;;4980954;28;20223;-80
2023/04/18 09:10:12;;;;;;;4.40;4.00;;;;;;;;;;5006770;28;20230;-79
2023/04/18 09:12:50;;;;;;;4.20;3.80;;;;;;;;;;4974628;28;20707;-79
2023/04/18 09:15:23;;;;;;;3.57;3.10;;;;;;;;;;4991769;28;20223;-81
2023/04/18 09:17:52;;;;;;;3.17;2.87;;;;;;;;;;4986230;28;20216;-83
2023/04/18 09:20:29;;;;;;;3.17;2.80;;;;;;;;;;4991549;28;20767;-81
2023/04/18 09:22:56;;;;;;;3.30;3.00;;;;;;;;;;4992375;28;20916;-79
2023/04/18 09:25:24;;;;;;;3.17;2.90;;;;;;;;;;5005846;28;20653;-79
2023/04/18 09:27:52;;;;;;;3.70;3.30;;;;;;;;;;5023941;28;20220;-80
2023/04/18 09:30:42;;;;;;;4.27;3.87;;;;;;;;;;5007469;28;20231;-80
2023/04/18 09:33:08;;;;;;;5.23;4.20;;;;;;;;;;4975479;28;20220;-80
2023/04/18 09:35:40;;;;;;;5.67;4.90;;;;;;;;;;5008573;28;20235;-80
2023/04/18 09:38:06;;;;;;;5.70;5.10;;;;;;;;;;5003653;28;20223;-82
2023/04/18 09:40:32;;;;;;;5.60;5.10;;;;;;;;;;5006863;28;20216;-78
2023/04/18 09:42:58;;;;;;;6.00;5.47;;;;;;;;;;5019663;28;20312;-79
2023/04/18 09:45:24;;;;;;;6.00;5.40;;;;;;;;;;4969415;28;20231;-79
2023/04/18 09:47:50;;;;;;;6.87;5.93;;;;;;;;;;4987671;28;20220;-81
2023/04/18 09:50:17;;;;;;;6.60;5.90;;;;;;;;;;5005335;28;20231;-80
2023/04/18 09:52:43;;;;;;;7.93;6.00;;;;;;;;;;5008979;28;20658;-80
2023/04/18 09:55:17;;;;;;;6.90;5.83;;;;;;;;;;4990170;28;20232;-79
2023/04/18 09:57:45;;;;;;;8.53;5.83;;;;;;;;;;4975390;28;20285;-79
2023/04/18 10:00:24;;;;;;;7.77;6.93;;;;;;;;;;4991566;28;20239;-80
2023/04/18 10:02:57;;;;;;;7.17;6.47;;;;;;;;;;4973523;28;20228;-78
2023/04/18 10:05:27;;;;;;;7.17;6.00;;;;;;;;;;5004679;28;20557;-78
2023/04/18 10:07:57;;;;;;;7.70;6.27;;;;;;;;;;4977069;28;20219;-78
2023/04/18 10:10:23;;;;;;;7.67;6.30;;;;;;;;;;4980574;28;20240;-80
2023/04/18 10:12:57;;;;;;;7.17;5.97;;;;;;;;;;4965379;28;20224;-80
2023/04/18 10:15:26;;;;;;;9.40;6.70;;;;;;;;;;4974734;28;20245;-79
2023/04/18 10:17:55;;;;;;;6.60;5.73;;;;;;;;;;5003998;28;20231;-79
2023/04/18 10:20:22;;;;;;;7.73;6.17;;;;;;;;;;5021677;28;20224;-79
2023/04/18 10:22:48;;;;;;;9.20;6.40;;;;;;;;;;4987815;28;20349;-79
2023/04/18 10:25:32;;;;;;;9.13;7.33;;;;;;;;;;5003991;28;20717;-82
2023/04/18 10:28:01;;;;;;;7.77;6.80;;;;;;;;;;4977833;28;20227;-80
2023/04/18 10:30:42;;;;;;;6.53;5.90;;;;;;;;;;4974063;28;20673;-78
2023/04/18 10:33:29;;;;;;;7.17;5.43;;;;;;;;;;5000118;28;20700;-81
2023/04/18 10:36:07;;;;;;;6.40;5.77;;;;;;;;;;5018959;28;20216;-79
2023/04/18 10:38:33;;;;;;;7.20;6.00;;;;;;;;;;5023744;28;20239;-78
2023/04/18 10:41:14;;;;;;;7.07;6.33;;;;;;;;;;5004974;28;20220;-80
2023/04/18 10:46:36;;;;;;;6.57;5.97;;;;;;;;;;5014903;28;20862;-82
2023/04/18 10:49:14;;;;;;;6.27;5.47;;;;;;;;;;5021984;28;20220;-80
2023/04/18 10:51:40;;;;;;;7.73;6.03;;;;;;;;;;4977200;28;20311;-83
2023/04/18 10:54:10;;;;;;;6.77;5.30;;;;;;;;;;4990209;28;20403;-77
2023/04/18 10:56:36;;;;;;;5.83;5.30;;;;;;;;;;4991130;28;20232;-80
2023/04/18 10:59:04;;;;;;;5.60;5.10;;;;;;;;;;4988605;28;20220;-80
2023/04/18 11:01:31;;;;;;;5.40;4.90;;;;;;;;;;4989478;28;20238;-77
2023/04/18 11:03:57;;;;;;;5.43;4.93;;;;;;;;;;4973505;28;20227;-82
2023/04/18 11:06:27;;;;;;;5.63;5.13;;;;;;;;;;4997335;28;20221;-76
2023/04/18 11:09:12;;;;;;;5.63;5.13;;;;;;;;;;4998129;28;20208;-81
2023/04/18 11:11:37;;;;;;;5.43;5.00;;;;;;;;;;4973389;28;20220;-80
2023/04/18 11:14:03;;;;;;;7.77;5.40;;;;;;;;;;4979171;28;20219;-82
2023/04/18 11:16:32;;;;;;;5.80;5.30;;;;;;;;;;4990632;28;20227;-81
2023/04/18 11:18:58;;;;;;;5.83;5.10;;;;;;;;;;4992730;28;20224;-81
2023/04/18 11:21:30;;;;;;;5.47;4.87;;;;;;;;;;5008628;28;20279;-81
2023/04/18 11:24:00;;;;;;;5.73;5.17;;;;;;;;;;4995391;28;20224;-80
2023/04/18 11:26:26;;;;;;;6.20;5.40;;;;;;;;;;4992622;28;20227;-82
2023/04/18 11:28:55;;;;;;;5.33;4.80;;;;;;;;;;4976205;28;20220;-79
2023/04/18 11:31:24;;;;;;;5.40;4.90;;;;;;;;;;4990556;28;20856;-80
2023/04/18 11:33:50;;;;;;;5.13;4.73;;;;;;;;;;5007156;28;20216;-83
2023/04/18 11:36:16;;;;;;;6.23;5.57;;;;;;;;;;4992767;28;20242;-81
2023/04/18 11:38:42;;;;;;;8.83;7.27;;;;;;;;;;4978671;28;20708;-82
2023/04/18 11:41:14;;;;;;;5.70;5.13;;;;;;;;;;4960148;28;20220;-78
2023/04/18 11:43:43;;;;;;;6.00;5.30;;;;;;;;;;4990313;28;20227;-79
2023/04/18 11:46:09;;;;;;;5.40;4.90;;;;;;;;;;4977299;28;20239;-81
2023/04/18 11:48:35;;;;;;;4.93;4.53;;;;;;;;;;4993366;28;20225;-81
2023/04/18 11:51:01;;;;;;;5.20;4.80;;;;;;;;;;4991148;28;20312;-82
2023/04/18 11:53:36;;;;;;;5.97;5.10;;;;;;;;;;4979373;28;20220;-80
2023/04/18 11:56:02;;;;;;;5.23;4.73;;;;;;;;;;4993549;28;20273;-81
2023/04/18 11:58:35;;;;;;;6.13;4.90;;;;;;;;;;5009149;28;20224;-78
2023/04/18 12:01:23;;;;;;;5.00;4.60;;;;;;;;;;4978158;28;20235;-82
2023/04/18 12:04:05;;;;;;;7.60;4.43;;;;;;;;;;4994030;28;20231;-84
2023/04/18 12:06:49;;;;;;;6.73;4.30;;;;;;;;;;5003308;28;20224;-79
2023/04/18 12:09:19;;;;;;;4.77;4.27;;;;;;;;;;4987572;28;20234;-80
2023/04/18 12:11:58;;;;;;;5.30;4.23;;;;;;;;;;4994378;28;20216;-80
2023/04/18 12:14:27;;;;;;;4.83;4.30;;;;;;;;;;4999413;28;20235;-79
2023/04/18 12:16:52;;;;;;;4.17;3.87;;;;;;;;;;4991887;28;20244;-81
2023/04/18 12:19:20;;;;;;;6.03;4.27;;;;;;;;;;4988941;28;20231;-83
2023/04/18 12:21:59;;;;;;;4.53;4.13;;;;;;;;;;5009169;28;20229;-80
2023/04/18 12:24:27;;;;;;;4.60;4.20;;;;;;;;;;5026761;28;20216;-78
2023/04/18 12:27:03;;;;;;;5.07;4.40;;;;;;;;;;4998036;28;20227;-79
2023/04/18 12:29:34;;;;;;;4.00;3.70;;;;;;;;;;4994326;28;20239;-80
2023/04/18 12:32:00;;;;;;;6.60;4.20;;;;;;;;;;5015511;28;20919;-81
2023/04/18 12:34:28;;;;;;;5.03;4.27;;;;;;;;;;4998335;28;20223;-77
2023/04/18 12:36:55;;;;;;;4.73;4.23;;;;;;;;;;4984135;28;20228;-78
2023/04/18 12:39:21;;;;;;;5.00;4.40;;;;;;;;;;4995061;28;20689;-80
2023/04/18 12:41:49;;;;;;;4.80;4.30;;;;;;;;;;4999759;28;20277;-81
2023/04/18 12:44:19;;;;;;;5.68;4.18;;;;;;;;;;4974788;28;20284;-80
2023/04/18 12:46:45;;;;;;;4.07;3.72;;;;;;;;;;5008357;28;20301;-81
2023/04/18 12:49:13;;;;;;;4.63;4.20;;;;;;;;;;4982120;28;20707;-80
2023/04/18 12:51:39;;;;;;;5.07;4.53;;;;;;;;;;4960943;28;20231;-80
2023/04/18 12:54:05;;;;;;;4.70;4.30;;;;;;;;;;5004731;28;20216;-81
2023/04/18 12:56:32;;;;;;;4.38;3.97;;;;;;;;;;4990526;28;20691;-80
2023/04/18 12:58:58;;;;;;;5.77;4.10;;;;;;;;;;4991844;28;20220;-80
2023/04/18 13:01:24;;;;;;;4.70;4.17;;;;;;;;;;4980106;28;20239;-78
2023/04/18 13:03:49;;;;;;;4.83;4.43;;;;;;;;;;4973466;28;20661;-81
2023/04/18 13:06:17;;;;;;;4.83;3.90;;;;;;;;;;4993297;28;20216;-80
2023/04/18 13:08:46;;;;;;;5.53;4.50;;;;;;;;;;4981397;28;20227;-79
2023/04/18 13:11:11;;;;;;;5.73;4.47;;;;;;;;;;4998662;28;20223;-80
2023/04/18 13:13:37;;;;;;;5.10;4.60;;;;;;;;;;4994622;28;20224;-80
2023/04/18 13:16:03;;;;;;;4.90;4.50;;;;;;;;;;5019211;28;20224;-79
2023/04/18 13:18:28;;;;;;;4.78;3.90;;;;;;;;;;4995407;28;20227;-80
2023/04/18 13:20:56;;;;;;;4.50;4.00;;;;;;;;;;5005263;28;20228;-81
2023/04/18 13:23:21;;;;;;;4.18;3.78;;;;;;;;;;4988495;28;20227;-78
2023/04/18 13:25:47;;;;;;;4.70;4.18;;;;;;;;;;4987356;28;20280;-79
2023/04/18 13:28:12;;;;;;;4.68;4.22;;;;;;;;;;5004122;28;20586;-78
2023/04/18 13:30:38;;;;;;;4.40;4.00;;;;;;;;;;4987773;28;20693;-77
2023/04/18 13:33:03;;;;;;;4.43;4.10;;;;;;;;;;4987639;28;20212;-79
2023/04/18 13:35:29;;;;;;;4.70;4.30;;;;;;;;;;4986643;28;20667;-78
2023/04/18 13:37:55;;;;;;;4.15;3.85;;;;;;;;;;4987342;28;20227;-80
2023/04/18 13:40:20;;;;;;;4.15;3.78;;;;;;;;;;4971768;28;20220;-81
2023/04/18 13:42:48;;;;;;;4.68;4.28;;;;;;;;;;4985608;28;20232;-81
2023/04/18 13:45:16;;;;;;;4.95;4.55;;;;;;;;;;4998196;28;20230;-81
2023/04/18 13:47:44;;;;;;;4.63;4.00;;;;;;;;;;4974202;28;20216;-81
2023/04/18 13:50:10;;;;;;;4.30;3.97;;;;;;;;;;5004505;28;20250;-79
2023/04/18 13:52:37;;;;;;;4.65;4.25;;;;;;;;;;4988879;28;20315;-78
2023/04/18 13:55:09;;;;;;;5.40;4.65;;;;;;;;;;4977732;28;20301;-81
2023/04/18 13:57:36;;;;;;;5.90;5.30;;;;;;;;;;4991247;28;20220;-80
2023/04/18 14:00:08;;;;;;;5.03;4.60;;;;;;;;;;4955392;28;20233;-80
2023/04/18 14:02:40;;;;;;;5.07;4.57;;;;;;;;;;4975292;28;20286;-79
2023/04/18 14:05:06;;;;;;;5.17;4.40;;;;;;;;;;4980168;28;20318;-81
2023/04/18 14:07:31;;;;;;;5.30;4.80;;;;;;;;;;4987390;28;20212;-82
2023/04/18 14:10:00;;;;;;;5.73;5.23;;;;;;;;;;4993878;28;20235;-80
2023/04/18 14:12:28;;;;;;;8.25;5.20;;;;;;;;;;4977725;28;20294;-81
2023/04/18 14:14:54;;;;;;;5.78;4.90;;;;;;;;;;5008076;28;20251;-78
2023/04/18 14:17:21;;;;;;;5.20;4.77;;;;;;;;;;4991983;28;20227;-81
2023/04/18 14:19:48;;;;;;;5.25;4.55;;;;;;;;;;4996959;28;20685;-80
2023/04/18 14:22:13;;;;;;;5.90;5.30;;;;;;;;;;4987800;28;20226;-79
2023/04/18 14:24:39;;;;;;;5.70;5.13;;;;;;;;;;5003317;28;20223;-82
2023/04/18 14:27:05;;;;;;;6.22;5.00;;;;;;;;;;5003053;28;20223;-81
2023/04/18 14:29:30;;;;;;;5.95;5.30;;;;;;;;;;4991031;28;20224;-81
2023/04/18 14:31:55;;;;;;;5.40;4.90;;;;;;;;;;4985092;28;20219;-82
2023/04/18 14:34:21;;;;;;;5.68;5.18;;;;;;;;;;4989989;28;20613;-81
2023/04/18 14:36:46;;;;;;;5.65;5.00;;;;;;;;;;4990814;28;20208;-80
2023/04/18 14:39:14;;;;;;;5.47;4.88;;;;;;;;;;5021703;28;20219;-78
2023/04/18 14:41:40;;;;;;;5.93;5.30;;;;;;;;;;5000849;28;20365;-79